KJES

Details ICAO KJES (JES)
Name JESUP WAYNE CO
Region United States
Timezone America/New_York (UTC-5.0)
Plans Departing 1
Arriving 1
Stats Elevation 108 ft / 33 m (AMSL)
Location 31.553963° -81.882518°
Runways 1
Magnetic Variation 6.499° W
Sunrise 2017-12-17 12:22:16 UTC / 2017-12-17 07:22:16 Local
Sunset 2017-12-17 22:27:59 UTC / 2017-12-17 17:27:59 Local
Advertisement - Login to hide

Runways

ID Width Length Bearing (true) Bearing (mag) Surface Threshold Offset Overrun Length
10 75 ft / 23 m 5,491 ft / 1,674 m 99.52° 106.02° Asphalt 0 ft / 0 m 0 ft / 0 m
28 75 ft / 23 m 5,491 ft / 1,674 m 279.53° 286.03° Asphalt 0 ft / 0 m 0 ft / 0 m

Map

Weather


0- 5 10 15 20 25 30 35+ Temperature / ° C

Clouds and Precipitation
Forecast for 2017-12-18 06:00 UTC. Updated 18 minutes ago

Ground ~20,000 ft ~40,000 ft Winds

METAR

KJES 180103Z AUTO 00000KT 10SM BKN085 15/12 A3022 RMK AO2

TAF

Not found

Frequencies

Unicom 122.80 MHz CTAF/UNICOM
Warning: Do not use this data for real-world aviation or navigation. No guarantee of current accuracy is given.